Time;durP1;ratioP1;P1;durP2;ratioP2;P2;SDS_P1;SDS_P2;PMS_P1;PMS_P2;Temp;Humidity;BMP_temperature;BMP_pressure;BME280_temperature;BME280_humidity;BME280_pressure;Samples;Min_cycle;Max_cycle;Signal;HPM_P1;HPM_P2
2022/08/22 00:02:08;;;;;;;;;;;20.90;97.10;;;;;;5063549;28;19908;-78
2022/08/22 00:04:46;;;;;;;;;;;21.00;97.10;;;;;;5050938;28;20649;-78
2022/08/22 00:07:17;;;;;;;;;;;21.00;96.80;;;;;;5063172;28;20800;-78
2022/08/22 00:09:47;;;;;;;;;;;20.80;97.10;;;;;;5063653;28;19908;-77
2022/08/22 00:12:28;;;;;;;;;;;20.70;98.00;;;;;;5063324;28;19981;-78
2022/08/22 00:15:20;;;;;;;;;;;20.70;98.10;;;;;;5067291;28;19955;-78
2022/08/22 00:17:48;;;;;;;;;;;20.70;98.90;;;;;;5065603;28;19966;-78
2022/08/22 00:20:20;;;;;;;;;;;20.70;99.20;;;;;;5067111;28;19912;-78
2022/08/22 00:22:55;;;;;;;;;;;20.60;99.30;;;;;;5066788;28;19912;-78
2022/08/22 00:25:20;;;;;;;;;;;20.60;99.90;;;;;;5066791;28;19916;-76
2022/08/22 00:28:06;;;;;;;;;;;20.60;99.90;;;;;;5065446;28;20394;-76
2022/08/22 00:30:44;;;;;;;;;;;20.60;99.90;;;;;;5044128;28;19920;-76
2022/08/22 00:33:17;;;;;;;;;;;20.60;99.90;;;;;;5043871;28;19928;-77
2022/08/22 00:35:48;;;;;;;;;;;20.50;99.90;;;;;;5043836;28;20054;-77
2022/08/22 00:38:16;;;;;;;;;;;20.60;99.90;;;;;;5043286;28;19913;-77
2022/08/22 00:40:45;;;;;;;;;;;20.60;99.90;;;;;;5033088;28;19917;-78
2022/08/22 00:43:25;;;;;;;;;;;20.50;99.90;;;;;;5040150;28;19913;-78
2022/08/22 00:46:09;;;;;;;;;;;20.60;99.90;;;;;;5043835;28;19912;-79
2022/08/22 00:48:38;;;;;;;;;;;20.60;99.90;;;;;;5043528;28;19925;-79
2022/08/22 00:51:06;;;;;;;;;;;20.70;99.90;;;;;;5043258;28;20447;-78
2022/08/22 00:53:34;;;;;;;;;;;20.70;99.90;;;;;;5042860;28;19924;-77
2022/08/22 00:56:19;;;;;;;;;;;20.80;99.90;;;;;;5043570;28;20015;-77
2022/08/22 00:58:53;;;;;;;;;;;20.70;99.90;;;;;;5043427;28;19952;-79
2022/08/22 01:01:25;;;;;;;;;;;20.60;99.90;;;;;;5043298;28;19917;-79
2022/08/22 01:03:56;;;;;;;;;;;20.60;99.90;;;;;;5026488;28;20011;-78
2022/08/22 01:06:40;;;;;;;;;;;20.60;99.90;;;;;;5043329;28;19920;-79
2022/08/22 01:09:25;;;;;;;;;;;20.50;99.90;;;;;;5062454;28;20376;-77
2022/08/22 01:12:02;;;;;;;;;;;20.40;99.90;;;;;;5066362;28;19938;-77
2022/08/22 01:14:28;;;;;;;;;;;20.20;99.90;;;;;;5065600;28;20664;-77
2022/08/22 01:16:57;;;;;;;;;;;20.30;99.90;;;;;;5065672;28;19958;-78
2022/08/22 01:19:36;;;;;;;;;;;20.30;99.90;;;;;;5065462;28;19912;-77
2022/08/22 01:22:20;;;;;;;;;;;20.30;99.90;;;;;;5065299;28;19919;-76
2022/08/22 01:27:56;;;;;;;;;;;20.10;99.90;;;;;;5065181;28;19970;-77
2022/08/22 01:30:40;;;;;;;;;;;20.10;99.90;;;;;;5065791;28;19916;-77
2022/08/22 01:33:08;;;;;;;;;;;20.10;99.90;;;;;;5065505;28;19920;-78
2022/08/22 01:35:46;;;;;;;;;;;20.20;99.90;;;;;;5065813;28;19916;-78
2022/08/22 01:38:17;;;;;;;;;;;20.10;99.90;;;;;;5065291;28;19947;-78
2022/08/22 01:41:01;;;;;;;;;;;20.30;99.90;;;;;;5063557;28;20408;-78
2022/08/22 01:43:27;;;;;;;;;;;20.30;99.90;;;;;;5064677;28;19952;-78
2022/08/22 01:46:10;;;;;;;;;;;20.40;99.90;;;;;;5064124;28;20014;-77
2022/08/22 01:48:36;;;;;;;;;;;20.40;99.90;;;;;;5064786;28;19969;-77
2022/08/22 01:51:01;;;;;;;;;;;20.10;99.90;;;;;;5064064;28;19913;-78
2022/08/22 01:53:37;;;;;;;;;;;20.10;99.90;;;;;;5065502;28;19928;-78
2022/08/22 01:56:34;;;;;;;;;;;20.20;99.90;;;;;;5064741;28;20459;-82
2022/08/22 01:59:22;;;;;;;;;;;20.20;99.90;;;;;;5064708;28;19928;-86
2022/08/22 02:01:48;;;;;;;;;;;20.20;99.90;;;;;;5051837;28;19912;-85
2022/08/22 02:04:32;;;;;;;;;;;20.10;99.90;;;;;;5064878;28;19920;-85
2022/08/22 02:07:04;;;;;;;;;;;20.10;99.90;;;;;;5064976;28;19920;-85
2022/08/22 02:09:35;;;;;;;;;;;20.20;99.90;;;;;;5065091;28;19959;-85
2022/08/22 02:12:21;;;;;;;;;;;20.20;99.90;;;;;;5064937;28;19919;-83
2022/08/22 02:14:55;;;;;;;;;;;20.10;99.90;;;;;;5063970;28;20417;-83
2022/08/22 02:17:24;;;;;;;;;;;20.00;99.90;;;;;;5064539;28;19923;-84
2022/08/22 02:20:00;;;;;;;;;;;20.00;99.90;;;;;;5064171;28;19913;-83
2022/08/22 02:22:29;;;;;;;;;;;20.00;99.90;;;;;;5064404;28;19927;-84
2022/08/22 02:25:06;;;;;;;;;;;20.10;99.90;;;;;;5064862;28;19919;-83
2022/08/22 02:27:50;;;;;;;;;;;20.10;99.90;;;;;;5062047;28;19912;-85
2022/08/22 02:30:16;;;;;;;;;;;20.10;99.90;;;;;;5064435;28;19954;-86
2022/08/22 02:32:42;;;;;;;;;;;20.00;99.90;;;;;;5064391;28;20379;-85
2022/08/22 02:35:20;;;;;;;;;;;19.90;99.90;;;;;;5064321;28;20375;-84
2022/08/22 02:37:45;;;;;;;;;;;19.90;99.90;;;;;;5064453;28;19912;-84
2022/08/22 02:40:14;;;;;;;;;;;20.00;99.90;;;;;;5064048;28;19917;-84
2022/08/22 02:42:43;;;;;;;;;;;20.00;99.90;;;;;;5064225;28;19912;-80
2022/08/22 02:45:14;;;;;;;;;;;20.00;99.90;;;;;;5064805;28;19913;-83
2022/08/22 02:47:44;;;;;;;;;;;20.00;99.90;;;;;;5063767;28;20391;-82
2022/08/22 02:50:10;;;;;;;;;;;20.00;99.90;;;;;;5063435;28;19913;-84
2022/08/22 02:52:54;;;;;;;;;;;20.00;99.90;;;;;;5063815;28;19926;-84
2022/08/22 02:55:33;;;;;;;;;;;20.00;99.90;;;;;;5064087;28;19912;-85
2022/08/22 02:58:06;;;;;;;;;;;20.00;99.90;;;;;;5064219;28;20070;-85
2022/08/22 03:00:47;;;;;;;;;;;20.00;99.90;;;;;;5063784;28;19912;-84
2022/08/22 03:03:13;;;;;;;;;;;20.00;99.90;;;;;;5063993;28;19952;-83
2022/08/22 03:05:38;;;;;;;;;;;20.00;99.90;;;;;;5064085;28;19955;-85
2022/08/22 03:08:13;;;;;;;;;;;20.00;99.90;;;;;;5064186;28;19912;-85
2022/08/22 03:10:40;;;;;;;;;;;19.90;99.90;;;;;;5095652;28;20311;-85
2022/08/22 03:13:11;;;;;;;;;;;19.70;99.90;;;;;;5063862;28;19924;-85
2022/08/22 03:15:39;;;;;;;;;;;19.80;99.90;;;;;;5064083;28;19927;-85
2022/08/22 03:18:11;;;;;;;;;;;19.90;99.90;;;;;;5063668;28;19985;-85
2022/08/22 03:20:45;;;;;;;;;;;19.80;99.90;;;;;;5064053;28;19916;-87
2022/08/22 03:23:13;;;;;;;;;;;19.90;99.90;;;;;;5065213;28;19919;-90
2022/08/22 03:25:42;;;;;;;;;;;19.80;99.90;;;;;;5067713;28;19913;-89
2022/08/22 03:28:17;;;;;;;;;;;19.80;99.90;;;;;;5067211;28;19995;-91
2022/08/22 03:30:54;;;;;;;;;;;19.80;99.90;;;;;;5063982;28;19919;-89
2022/08/22 03:33:21;;;;;;;;;;;19.80;99.90;;;;;;5063820;28;19927;-91
2022/08/22 03:35:48;;;;;;;;;;;19.80;99.90;;;;;;5064498;28;19948;-90
2022/08/22 03:38:26;;;;;;;;;;;19.90;99.90;;;;;;5063965;28;19912;-90
2022/08/22 03:41:00;;;;;;;;;;;19.70;99.90;;;;;;5063939;28;20355;-89
2022/08/22 03:43:44;;;;;;;;;;;19.80;99.90;;;;;;5063608;28;20243;-89
2022/08/22 03:46:10;;;;;;;;;;;19.80;99.90;;;;;;5063318;28;19912;-87
2022/08/22 03:48:37;;;;;;;;;;;19.80;99.90;;;;;;5065537;28;19947;-87
2022/08/22 03:51:08;;;;;;;;;;;19.80;99.90;;;;;;5066555;28;19912;-87
2022/08/22 03:53:46;;;;;;;;;;;19.80;99.90;;;;;;5099604;28;19942;-87
2022/08/22 03:56:30;;;;;;;;;;;19.80;99.90;;;;;;5067161;28;19912;-85
2022/08/22 03:59:14;;;;;;;;;;;19.70;99.90;;;;;;5067580;28;19916;-88
2022/08/22 04:01:39;;;;;;;;;;;19.70;99.90;;;;;;5067419;28;20344;-88
2022/08/22 04:04:23;;;;;;;;;;;19.70;99.90;;;;;;5067003;28;20001;-86
2022/08/22 04:07:07;;;;;;;;;;;19.80;99.90;;;;;;5067103;28;19912;-87
2022/08/22 04:09:42;;;;;;;;;;;19.80;99.90;;;;;;5066814;28;19913;-86
2022/08/22 04:12:26;;;;;;;;;;;19.80;99.90;;;;;;5066942;28;19916;-84
2022/08/22 04:15:06;;;;;;;;;;;19.70;99.90;;;;;;5067017;28;19912;-83
2022/08/22 04:17:32;;;;;;;;;;;19.70;99.90;;;;;;5066976;28;19946;-83
2022/08/22 04:20:18;;;;;;;;;;;19.80;99.90;;;;;;5067141;28;19916;-83
2022/08/22 04:22:46;;;;;;;;;;;19.70;99.90;;;;;;5066718;28;19912;-83
2022/08/22 04:25:18;;;;;;;;;;;19.70;99.90;;;;;;5067113;28;19912;-84
2022/08/22 04:27:47;;;;;;;;;;;19.70;99.90;;;;;;5067022;28;20069;-85
2022/08/22 04:30:22;;;;;;;;;;;19.60;99.90;;;;;;5066823;28;20065;-85
2022/08/22 04:32:58;;;;;;;;;;;19.60;99.90;;;;;;5067401;28;20303;-84
2022/08/22 04:35:32;;;;;;;;;;;19.60;99.90;;;;;;5067118;28;19912;-83
2022/08/22 04:38:06;;;;;;;;;;;19.50;99.90;;;;;;5066878;28;19918;-84
2022/08/22 04:40:35;;;;;;;;;;;19.50;99.90;;;;;;5067005;28;19916;-85
2022/08/22 04:43:21;;;;;;;;;;;19.50;99.90;;;;;;5066591;28;19913;-85
2022/08/22 04:45:50;;;;;;;;;;;19.40;99.90;;;;;;5066431;28;19916;-84
2022/08/22 04:48:32;;;;;;;;;;;19.50;99.90;;;;;;5066894;28;19955;-84
2022/08/22 04:51:18;;;;;;;;;;;19.40;99.90;;;;;;5064487;28;20357;-86
2022/08/22 04:53:46;;;;;;;;;;;19.50;99.90;;;;;;5065962;28;19921;-86
2022/08/22 04:56:24;;;;;;;;;;;19.50;99.90;;;;;;5066518;28;20056;-79
2022/08/22 04:58:58;;;;;;;;;;;19.50;99.90;;;;;;5066195;28;20275;-79
2022/08/22 05:01:26;;;;;;;;;;;19.40;99.90;;;;;;5066605;28;19913;-80
2022/08/22 05:03:51;;;;;;;;;;;19.30;99.90;;;;;;5066164;28;19912;-80
2022/08/22 05:06:18;;;;;;;;;;;19.30;99.90;;;;;;5065646;28;19913;-81
2022/08/22 05:08:45;;;;;;;;;;;19.30;99.90;;;;;;5066167;28;19966;-82
2022/08/22 05:11:12;;;;;;;;;;;19.30;99.90;;;;;;5065666;28;19923;-81
2022/08/22 05:13:43;;;;;;;;;;;19.30;99.90;;;;;;5066252;28;19967;-81
2022/08/22 05:16:11;;;;;;;;;;;19.30;99.90;;;;;;5065570;28;19912;-80
2022/08/22 05:18:57;;;;;;;;;;;19.30;99.90;;;;;;5065668;28;20629;-82
2022/08/22 05:21:27;;;;;;;;;;;19.40;99.90;;;;;;5065209;28;19934;-81
2022/08/22 05:24:02;;;;;;;;;;;19.20;99.90;;;;;;5064362;28;19921;-82
2022/08/22 05:26:33;;;;;;;;;;;19.20;99.90;;;;;;5065842;28;19955;-81
2022/08/22 05:29:01;;;;;;;;;;;19.10;99.90;;;;;;5065758;28;19908;-83
2022/08/22 05:31:38;;;;;;;;;;;19.30;99.90;;;;;;5065616;28;19917;-80
2022/08/22 05:34:06;;;;;;;;;;;19.30;99.90;;;;;;5065579;28;19917;-80
2022/08/22 05:36:36;;;;;;;;;;;19.20;99.90;;;;;;5065927;28;20026;-80
2022/08/22 05:39:05;;;;;;;;;;;19.20;99.90;;;;;;5065713;28;19974;-81
2022/08/22 05:41:35;;;;;;;;;;;19.10;99.90;;;;;;5065379;28;20402;-80
2022/08/22 05:44:01;;;;;;;;;;;19.20;99.90;;;;;;5065541;28;20375;-81
2022/08/22 05:46:39;;;;;;;;;;;19.30;99.90;;;;;;5065819;28;19922;-80
2022/08/22 05:49:12;;;;;;;;;;;19.30;99.90;;;;;;5064769;28;20617;-81
2022/08/22 05:51:46;;;;;;;;;;;19.40;99.90;;;;;;5065017;28;19924;-81
2022/08/22 05:54:18;;;;;;;;;;;19.30;99.90;;;;;;5065431;28;19925;-81
2022/08/22 05:56:53;;;;;;;;;;;19.50;99.90;;;;;;5065670;28;20775;-84
2022/08/22 05:59:30;;;;;;;;;;;19.40;99.90;;;;;;5065091;28;19961;-85
2022/08/22 06:02:05;;;;;;;;;;;19.40;99.90;;;;;;5064781;28;19912;-85
2022/08/22 06:04:42;;;;;;;;;;;19.50;99.90;;;;;;5065176;28;19912;-84
2022/08/22 06:07:30;;;;;;;;;;;19.50;99.90;;;;;;5064858;28;20415;-86
2022/08/22 06:10:01;;;;;;;;;;;19.50;99.90;;;;;;5065161;28;20401;-85
2022/08/22 06:12:30;;;;;;;;;;;19.60;99.90;;;;;;5064654;28;19916;-83
2022/08/22 06:14:55;;;;;;;;;;;19.70;99.90;;;;;;5095399;28;19932;-83
2022/08/22 06:17:26;;;;;;;;;;;20.00;99.90;;;;;;5075852;28;19912;-85
2022/08/22 06:19:52;;;;;;;;;;;20.20;99.90;;;;;;5064929;28;19928;-85
2022/08/22 06:22:30;;;;;;;;;;;20.40;99.90;;;;;;5060987;28;20082;-85
2022/08/22 06:24:59;;;;;;;;;;;20.60;99.90;;;;;;5058749;28;20003;-85
2022/08/22 06:27:26;;;;;;;;;;;20.80;99.90;;;;;;5063310;28;19948;-85
2022/08/22 06:29:57;;;;;;;;;;;20.90;99.90;;;;;;5062409;28;19916;-91
2022/08/22 06:32:25;;;;;;;;;;;20.80;99.90;;;;;;5058578;28;19924;-89
2022/08/22 06:34:52;;;;;;;;;;;21.00;99.90;;;;;;5053761;28;20358;-90
2022/08/22 06:37:30;;;;;;;;;;;21.90;99.90;;;;;;5050668;28;19916;-88
2022/08/22 06:39:57;;;;;;;;;;;24.00;99.90;;;;;;5085253;28;20198;-87
2022/08/22 06:42:24;;;;;;;;;;;22.50;99.90;;;;;;5052693;28;19916;-90
2022/08/22 06:44:56;;;;;;;;;;;23.00;99.90;;;;;;5046512;28;19919;-86
2022/08/22 06:47:23;;;;;;;;;;;22.70;99.90;;;;;;5049733;28;19989;-86
2022/08/22 06:49:51;;;;;;;;;;;22.30;99.90;;;;;;5058129;28;19986;-88
2022/08/22 06:52:19;;;;;;;;;;;22.30;99.90;;;;;;5092758;28;19927;-87
2022/08/22 06:54:45;;;;;;;;;;;22.30;99.90;;;;;;5061605;28;19920;-87
2022/08/22 06:57:23;;;;;;;;;;;22.10;99.90;;;;;;5062678;28;19917;-87
2022/08/22 06:59:49;;;;;;;;;;;21.90;99.90;;;;;;5075174;28;19964;-86
2022/08/22 07:02:20;;;;;;;;;;;21.50;99.90;;;;;;5094169;28;20033;-88
2022/08/22 07:04:47;;;;;;;;;;;21.50;99.90;;;;;;5058557;28;19928;-84
2022/08/22 07:07:16;;;;;;;;;;;21.50;99.90;;;;;;5052998;28;20006;-85
2022/08/22 07:09:41;;;;;;;;;;;21.50;99.90;;;;;;5085914;28;19916;-85
2022/08/22 07:12:14;;;;;;;;;;;21.50;99.90;;;;;;5058749;28;19939;-85
2022/08/22 07:14:41;;;;;;;;;;;21.70;99.90;;;;;;5057461;28;20017;-86
2022/08/22 07:17:15;;;;;;;;;;;22.00;99.90;;;;;;5050227;28;19917;-86
2022/08/22 07:19:45;;;;;;;;;;;21.70;99.90;;;;;;5058382;28;19917;-86
2022/08/22 07:22:13;;;;;;;;;;;21.40;99.90;;;;;;5055610;28;19924;-87
2022/08/22 07:24:41;;;;;;;;;;;21.10;99.90;;;;;;5058341;28;19923;-88
2022/08/22 07:27:21;;;;;;;;;;;21.20;99.90;;;;;;5054171;28;20011;-87
2022/08/22 07:30:06;;;;;;;;;;;21.10;99.90;;;;;;5049201;28;20023;-87
2022/08/22 07:32:40;;;;;;;;;;;21.00;99.90;;;;;;5056328;28;20007;-88
2022/08/22 07:35:12;;;;;;;;;;;20.80;99.90;;;;;;5060882;28;19920;-88
2022/08/22 07:37:37;;;;;;;;;;;20.60;99.90;;;;;;5061296;28;19921;-88
2022/08/22 07:40:15;;;;;;;;;;;20.80;99.90;;;;;;5052898;28;19923;-88
2022/08/22 07:42:41;;;;;;;;;;;20.90;99.90;;;;;;5055302;28;19913;-87
2022/08/22 07:45:07;;;;;;;;;;;20.90;99.90;;;;;;5048252;28;19923;-86
2022/08/22 07:47:38;;;;;;;;;;;21.30;99.90;;;;;;5051850;28;19928;-86
2022/08/22 07:50:06;;;;;;;;;;;22.00;99.90;;;;;;5059339;28;19947;-87
2022/08/22 07:52:37;;;;;;;;;;;24.10;99.90;;;;;;5063277;28;19916;-81
2022/08/22 07:55:23;;;;;;;;;;;24.70;99.90;;;;;;5062587;28;20229;-78
2022/08/22 07:57:53;;;;;;;;;;;25.30;99.90;;;;;;5053464;28;20388;-79
2022/08/22 08:00:19;;;;;;;;;;;25.90;99.90;;;;;;5090601;28;19917;-79
2022/08/22 08:02:48;;;;;;;;;;;26.20;99.90;;;;;;5052608;28;19931;-78
2022/08/22 08:05:14;;;;;;;;;;;26.00;99.60;;;;;;5057392;28;19964;-78
2022/08/22 08:07:42;;;;;;;;;;;26.20;98.60;;;;;;5092194;28;19974;-79
2022/08/22 08:10:10;;;;;;;;;;;26.40;99.00;;;;;;5056971;28;19921;-77
2022/08/22 08:12:38;;;;;;;;;;;26.80;99.10;;;;;;5058533;28;19924;-77
2022/08/22 08:15:07;;;;;;;;;;;27.80;96.50;;;;;;5058266;28;19927;-78
2022/08/22 08:17:34;;;;;;;;;;;27.70;96.90;;;;;;5056608;28;19986;-77
2022/08/22 08:20:04;;;;;;;;;;;27.10;96.30;;;;;;5056950;28;19962;-77
2022/08/22 08:22:30;;;;;;;;;;;26.80;96.20;;;;;;5057718;28;19916;-77
2022/08/22 08:24:57;;;;;;;;;;;26.10;97.90;;;;;;5057790;28;19916;-77
2022/08/22 08:30:10;;;;;;;;;;;25.00;99.90;;;;;;5060271;28;19923;-78
2022/08/22 08:32:37;;;;;;;;;;;24.80;99.90;;;;;;5059873;28;19921;-78
2022/08/22 08:35:05;;;;;;;;;;;25.60;99.90;;;;;;5052920;28;20327;-77
2022/08/22 08:37:43;;;;;;;;;;;25.80;99.20;;;;;;5057795;28;20641;-77
2022/08/22 08:40:19;;;;;;;;;;;25.90;98.90;;;;;;5057145;28;20303;-77
2022/08/22 08:46:06;;;;;;;;;;;26.10;98.00;;;;;;5055286;28;19982;-77
2022/08/22 08:48:34;;;;;;;;;;;26.10;97.70;;;;;;5046348;28;20534;-78
2022/08/22 08:51:35;;;;;;;;;;;25.70;97.40;;;;;;5056305;28;19921;-77
2022/08/22 08:54:19;;;;;;;;;;;25.30;96.80;;;;;;5018170;28;19971;-77
2022/08/22 08:57:04;;;;;;;;;;;25.20;97.30;;;;;;5019354;28;20372;-78
2022/08/22 08:59:39;;;;;;;;;;;25.40;97.60;;;;;;5019461;28;20403;-77
2022/08/22 09:02:24;;;;;;;;;;;25.10;98.90;;;;;;5017435;28;19988;-77
2022/08/22 09:05:04;;;;;;;;;;;24.90;98.70;;;;;;5017956;28;19918;-77
2022/08/22 09:07:36;;;;;;;;;;;25.10;98.30;;;;;;5017343;28;19917;-77
2022/08/22 09:10:10;;;;;;;;;;;25.20;98.20;;;;;;5000431;28;20562;-77
2022/08/22 09:12:47;;;;;;;;;;;26.00;97.30;;;;;;5017590;28;20543;-77
2022/08/22 09:15:38;;;;;;;;;;;27.10;93.50;;;;;;5021421;28;20009;-77
2022/08/22 09:18:03;;;;;;;;;;;27.30;93.40;;;;;;4996317;28;20313;-77
2022/08/22 09:20:31;;;;;;;;;;;28.40;92.00;;;;;;5019922;28;19926;-77
2022/08/22 09:22:57;;;;;;;;;;;27.10;93.30;;;;;;5019385;28;19928;-77
2022/08/22 09:25:22;;;;;;;;;;;25.70;94.90;;;;;;5019579;28;19917;-77
2022/08/22 09:27:58;;;;;;;;;;;24.60;96.70;;;;;;5034864;28;19943;-77
2022/08/22 09:30:25;;;;;;;;;;;24.10;98.10;;;;;;5062809;28;19916;-77
2022/08/22 09:32:57;;;;;;;;;;;24.00;99.10;;;;;;5056274;28;20408;-77
2022/08/22 09:35:26;;;;;;;;;;;24.50;99.90;;;;;;5056049;28;19927;-79
2022/08/22 09:37:52;;;;;;;;;;;24.70;98.60;;;;;;5058917;28;19950;-77
2022/08/22 09:40:27;;;;;;;;;;;25.00;98.40;;;;;;5055040;28;20388;-77
2022/08/22 09:43:00;;;;;;;;;;;25.00;97.90;;;;;;5054608;28;19916;-78
2022/08/22 09:45:41;;;;;;;;;;;25.00;98.30;;;;;;5056104;28;19935;-76
2022/08/22 09:48:25;;;;;;;;;;;25.00;98.40;;;;;;5065936;28;19928;-77
2022/08/22 09:50:55;;;;;;;;;;;25.20;98.20;;;;;;5056657;28;19921;-78
2022/08/22 09:53:36;;;;;;;;;;;25.60;97.20;;;;;;5058400;28;19924;-76
2022/08/22 09:56:07;;;;;;;;;;;26.20;97.20;;;;;;5060726;28;19948;-83
2022/08/22 09:58:43;;;;;;;;;;;25.90;96.00;;;;;;5060615;28;19913;-82
2022/08/22 10:01:36;;;;;;;;;;;26.00;96.80;;;;;;5056688;28;20392;-82
2022/08/22 10:04:02;;;;;;;;;;;26.50;95.70;;;;;;5037529;28;19974;-82
2022/08/22 10:06:33;;;;;;;;;;;26.20;94.60;;;;;;5037257;28;19917;-82
2022/08/22 10:09:13;;;;;;;;;;;26.00;95.10;;;;;;5036839;28;19917;-83
2022/08/22 10:11:48;;;;;;;;;;;25.60;95.70;;;;;;5035841;28;20010;-86
2022/08/22 10:14:16;;;;;;;;;;;25.40;96.10;;;;;;5037325;28;19931;-82
2022/08/22 10:17:00;;;;;;;;;;;25.20;96.40;;;;;;5037258;28;19920;-84
2022/08/22 10:19:31;;;;;;;;;;;24.70;97.20;;;;;;5035597;28;20769;-81
2022/08/22 10:22:14;;;;;;;;;;;24.50;97.80;;;;;;5034004;28;19995;-78
2022/08/22 10:24:56;;;;;;;;;;;24.50;98.00;;;;;;5040607;28;19963;-78
2022/08/22 10:27:41;;;;;;;;;;;24.40;97.90;;;;;;5038663;28;19928;-78
2022/08/22 10:30:10;;;;;;;;;;;24.60;98.10;;;;;;5036734;28;19925;-78
2022/08/22 10:32:43;;;;;;;;;;;24.90;97.40;;;;;;5035812;28;20535;-77
2022/08/22 10:35:09;;;;;;;;;;;25.40;97.10;;;;;;5036958;28;19921;-75
2022/08/22 10:37:37;;;;;;;;;;;25.40;96.60;;;;;;5033620;28;19959;-76
2022/08/22 10:40:13;;;;;;;;;;;25.80;95.50;;;;;;5024311;28;20014;-78
2022/08/22 10:42:47;;;;;;;;;;;26.10;95.30;;;;;;5060001;28;19912;-79
2022/08/22 10:45:20;;;;;;;;;;;26.00;95.30;;;;;;5055370;28;19927;-77
2022/08/22 10:47:52;;;;;;;;;;;25.60;95.30;;;;;;5062160;28;19916;-77
2022/08/22 10:50:22;;;;;;;;;;;25.40;95.60;;;;;;5048006;28;19923;-78
2022/08/22 10:52:50;;;;;;;;;;;25.60;95.70;;;;;;5062085;28;19947;-78
2022/08/22 10:55:16;;;;;;;;;;;26.20;94.60;;;;;;5060927;28;20451;-73
2022/08/22 10:57:47;;;;;;;;;;;26.30;94.60;;;;;;5062407;28;20342;-74
2022/08/22 11:00:13;;;;;;;;;;;27.00;93.60;;;;;;5059721;28;20658;-73
2022/08/22 11:02:59;;;;;;;;;;;27.00;93.60;;;;;;5058232;28;19913;-73
2022/08/22 11:05:39;;;;;;;;;;;27.30;92.30;;;;;;5062727;28;19916;-73
2022/08/22 11:08:23;;;;;;;;;;;27.30;92.00;;;;;;5061353;28;19970;-73
2022/08/22 11:10:52;;;;;;;;;;;27.30;93.70;;;;;;5060876;28;19924;-73
2022/08/22 11:13:41;;;;;;;;;;;27.40;92.90;;;;;;5057732;28;19924;-73
2022/08/22 11:16:12;;;;;;;;;;;27.50;92.10;;;;;;5057730;28;19926;-73
2022/08/22 11:18:37;;;;;;;;;;;27.30;92.00;;;;;;5060322;28;20659;-73
2022/08/22 11:21:06;;;;;;;;;;;27.40;91.90;;;;;;5059730;28;19925;-74
2022/08/22 11:23:55;;;;;;;;;;;27.60;92.70;;;;;;5057217;28;20292;-74
2022/08/22 11:26:33;;;;;;;;;;;27.70;91.70;;;;;;5058729;28;19916;-75
2022/08/22 11:29:18;;;;;;;;;;;27.60;91.20;;;;;;5057214;28;19923;-74
2022/08/22 11:31:46;;;;;;;;;;;27.30;90.70;;;;;;5059082;28;19920;-74
2022/08/22 11:34:12;;;;;;;;;;;27.50;91.70;;;;;;5060567;28;19924;-74
2022/08/22 11:36:51;;;;;;;;;;;27.20;91.40;;;;;;5057808;28;19966;-74
2022/08/22 11:39:34;;;;;;;;;;;27.70;93.00;;;;;;5060125;28;19921;-74
2022/08/22 11:41:59;;;;;;;;;;;28.00;92.20;;;;;;5061871;28;19995;-74
2022/08/22 11:44:26;;;;;;;;;;;28.60;92.50;;;;;;5058944;28;20412;-74
2022/08/22 11:46:55;;;;;;;;;;;28.80;91.10;;;;;;5055713;28;20815;-76
2022/08/22 11:49:21;;;;;;;;;;;29.10;90.40;;;;;;5059056;28;19966;-74
2022/08/22 11:51:50;;;;;;;;;;;28.90;90.00;;;;;;5057382;28;20023;-75
2022/08/22 11:54:23;;;;;;;;;;;28.40;89.30;;;;;;5074810;28;20729;-74
2022/08/22 11:56:53;;;;;;;;;;;27.70;90.90;;;;;;5059615;28;19916;-77
2022/08/22 11:59:24;;;;;;;;;;;27.00;90.60;;;;;;5055617;28;20416;-82
2022/08/22 12:01:51;;;;;;;;;;;26.80;91.20;;;;;;5061356;28;19976;-78
2022/08/22 12:04:17;;;;;;;;;;;26.60;92.20;;;;;;5057988;28;19920;-78
2022/08/22 12:06:49;;;;;;;;;;;26.20;93.10;;;;;;5055866;28;19923;-80
2022/08/22 12:09:17;;;;;;;;;;;26.20;93.50;;;;;;5060615;28;19934;-79
2022/08/22 12:11:52;;;;;;;;;;;26.20;93.90;;;;;;5058956;28;19956;-78
2022/08/22 12:14:22;;;;;;;;;;;25.80;94.00;;;;;;5056092;28;20011;-79
2022/08/22 12:17:00;;;;;;;;;;;25.90;94.10;;;;;;5055713;28;20624;-81
2022/08/22 12:19:26;;;;;;;;;;;26.20;94.70;;;;;;5051609;28;20472;-82
2022/08/22 12:21:54;;;;;;;;;;;26.20;95.10;;;;;;5046547;28;19912;-82
2022/08/22 12:24:43;;;;;;;;;;;26.30;95.70;;;;;;5061884;28;19971;-81
2022/08/22 12:27:11;;;;;;;;;;;26.50;94.90;;;;;;5011913;28;19958;-81
2022/08/22 12:29:43;;;;;;;;;;;26.40;94.40;;;;;;5021608;28;20459;-81
2022/08/22 12:32:32;;;;;;;;;;;26.50;94.60;;;;;;5022751;28;19977;-81
2022/08/22 12:34:57;;;;;;;;;;;25.80;95.80;;;;;;4984205;28;19929;-82
2022/08/22 12:37:27;;;;;;;;;;;25.00;99.90;;;;;;4984502;28;19917;-81
2022/08/22 12:40:16;;;;;;;;;;;24.30;99.90;;;;;;4984914;28;19917;-81
2022/08/22 12:42:43;;;;;;;;;;;24.80;99.90;;;;;;4984926;28;19913;-81
2022/08/22 12:45:12;;;;;;;;;;;24.90;99.90;;;;;;4984454;28;20021;-82
2022/08/22 12:47:49;;;;;;;;;;;24.90;99.90;;;;;;4984503;28;19918;-81
2022/08/22 12:50:15;;;;;;;;;;;25.20;99.90;;;;;;4984406;28;19940;-81
2022/08/22 12:52:49;;;;;;;;;;;25.30;99.90;;;;;;4984464;28;20313;-80
2022/08/22 12:55:20;;;;;;;;;;;25.30;99.90;;;;;;4985485;28;19925;-81
2022/08/22 12:57:46;;;;;;;;;;;25.10;99.90;;;;;;4984135;28;19914;-81
2022/08/22 13:00:28;;;;;;;;;;;25.50;99.90;;;;;;4984574;28;19914;-81
2022/08/22 13:02:54;;;;;;;;;;;25.70;99.90;;;;;;4984402;28;19941;-81
2022/08/22 13:05:21;;;;;;;;;;;25.50;99.90;;;;;;4975736;28;20392;-81
2022/08/22 13:07:59;;;;;;;;;;;25.80;99.90;;;;;;4984459;28;19914;-81
2022/08/22 13:10:43;;;;;;;;;;;25.80;99.90;;;;;;4984096;28;19914;-81
2022/08/22 13:13:11;;;;;;;;;;;25.80;99.90;;;;;;5060421;28;19920;-81
2022/08/22 13:15:43;;;;;;;;;;;26.10;99.90;;;;;;5055998;28;19943;-81
2022/08/22 13:18:16;;;;;;;;;;;26.40;99.90;;;;;;5057746;28;19919;-82
2022/08/22 13:20:44;;;;;;;;;;;26.70;99.90;;;;;;5066302;28;19955;-81
2022/08/22 13:23:26;;;;;;;;;;;26.50;99.30;;;;;;5065873;28;19956;-81
2022/08/22 13:25:51;;;;;;;;;;;26.70;98.60;;;;;;5058349;28;20040;-82
2022/08/22 13:28:20;;;;;;;;;;;26.50;99.90;;;;;;5065657;28;20003;-81
2022/08/22 13:30:48;;;;;;;;;;;26.40;98.70;;;;;;5066068;28;20277;-82
2022/08/22 13:33:21;;;;;;;;;;;26.40;98.60;;;;;;5065922;28;19924;-82
2022/08/22 13:35:48;;;;;;;;;;;26.40;97.30;;;;;;5066099;28;19912;-81
2022/08/22 13:38:20;;;;;;;;;;;26.30;96.90;;;;;;5065713;28;19913;-82
2022/08/22 13:40:48;;;;;;;;;;;26.30;96.60;;;;;;5065932;28;19999;-81
2022/08/22 13:43:33;;;;;;;;;;;26.50;96.30;;;;;;5065615;28;20015;-82
2022/08/22 13:46:00;;;;;;;;;;;26.40;96.80;;;;;;5065487;28;19913;-81
2022/08/22 13:48:28;;;;;;;;;;;26.10;96.10;;;;;;5065290;28;20387;-82
2022/08/22 13:51:04;;;;;;;;;;;25.60;96.20;;;;;;5097054;28;19931;-81
2022/08/22 13:53:37;;;;;;;;;;;25.50;97.20;;;;;;5065492;28;19920;-82
2022/08/22 13:56:17;;;;;;;;;;;25.10;98.50;;;;;;5065392;28;19947;-75
2022/08/22 13:58:45;;;;;;;;;;;25.20;99.70;;;;;;5065709;28;19952;-75
2022/08/22 14:01:30;;;;;;;;;;;24.90;98.70;;;;;;5065172;28;20455;-75
2022/08/22 14:04:08;;;;;;;;;;;24.40;99.90;;;;;;5065437;28;19912;-75
2022/08/22 14:07:00;;;;;;;;;;;24.50;99.90;;;;;;5065007;28;19916;-76
2022/08/22 14:09:47;;;;;;;;;;;24.80;99.90;;;;;;5042298;28;19913;-75
2022/08/22 14:12:23;;;;;;;;;;;24.40;99.90;;;;;;5042521;28;20502;-76
2022/08/22 14:14:54;;;;;;;;;;;24.40;99.90;;;;;;5041948;28;20148;-75
2022/08/22 14:17:23;;;;;;;;;;;24.70;99.90;;;;;;5025311;28;19913;-76
2022/08/22 14:20:11;;;;;;;;;;;25.00;99.90;;;;;;5041910;28;19920;-75
2022/08/22 14:22:39;;;;;;;;;;;24.90;99.90;;;;;;5030337;28;20450;-75
2022/08/22 14:25:05;;;;;;;;;;;24.90;99.90;;;;;;5041452;28;19913;-75
2022/08/22 14:27:48;;;;;;;;;;;25.20;99.90;;;;;;5041669;28;20403;-75
2022/08/22 14:30:17;;;;;;;;;;;25.00;99.70;;;;;;5041519;28;19916;-75
2022/08/22 14:32:45;;;;;;;;;;;25.30;99.70;;;;;;5041250;28;19928;-76
2022/08/22 14:35:21;;;;;;;;;;;25.30;98.90;;;;;;5041572;28;20408;-75
2022/08/22 14:37:48;;;;;;;;;;;25.70;99.90;;;;;;5041456;28;19920;-76
2022/08/22 14:40:20;;;;;;;;;;;25.90;98.60;;;;;;5041492;28;19944;-75
2022/08/22 14:42:59;;;;;;;;;;;26.10;98.20;;;;;;5041656;28;19917;-75
2022/08/22 14:45:27;;;;;;;;;;;26.30;98.00;;;;;;5042076;28;19913;-75
2022/08/22 14:47:55;;;;;;;;;;;26.50;97.70;;;;;;5055045;28;20003;-76
2022/08/22 14:50:35;;;;;;;;;;;26.50;97.60;;;;;;5062984;28;19924;-76
2022/08/22 14:53:03;;;;;;;;;;;26.40;96.20;;;;;;5030866;28;20039;-76
2022/08/22 14:55:29;;;;;;;;;;;26.40;98.10;;;;;;5043859;28;20383;-82
2022/08/22 14:57:57;;;;;;;;;;;26.40;97.10;;;;;;5043670;28;19919;-81
2022/08/22 15:00:24;;;;;;;;;;;26.10;96.70;;;;;;5043913;28;19913;-81